Terminal Aerodrome Forecast
Issued by NWS

Home | Current Version | Previous Version | Text Only | Print | Product List | Glossary On
Versions: 1 2 3 4 5 6 7 8 9 10 11 12 13 14 15 16 17 18 19 20 21 22 23 24 25 26
000
FTUS43 KDLH 291912 AAA
TAFHIB
TAF AMD
KHIB 291912Z 2919/3018 24007KT P6SM SCT028
      TEMPO 2919/2921 BKN028
     FM292100 26008KT P6SM VCTS BKN035CB
      TEMPO 2921/2923 6SM -TSRA BR BKN030CB
     FM300100 30004KT P6SM SCT040 BKN100
     FM300400 32004KT P6SM SKC
      TEMPO 3010/3013 3SM BR
     FM301600 33010KT P6SM SCT040=

USA.gov is the U.S. government's official web portal to all federal, state and local government web resources and services.